FQNC

Nacala Airport

Nacala, Mozambique
TAF FQNC 212200Z 2200/2300 31008KT 9999 SCT012 BKN020 FEW025CB PROB30 TEMPO 2200/2206 5000 -TSRA SCT010 BKN017 BECMG 2206/2208 31010G20KT PROB30 TEMPO 2212/2218 4000 TSRA SCT010 BKN017 BECMG 2212/2214 03010G20KT BECMG 2218/2220 33010G20KT TX28/2213Z TN23/2203Z
Issued Valid From Valid To
Jan-21 @ 22:00 UTC
(2 hours ago)
Jan-22 @ 00:00 UTC
(23 minutes ago)
Jan-23 @ 00:00 UTC
(in 24 hours)
Jan-22 @ 00:00 to Jan-22 @ 06:00
TAF FQNC 212200Z 2200/2300 31008KT 9999 SCT012 BKN020 FEW025CB
Wind Visibility Clouds
310° at 8 knots 10,000+ meters
  • Scattered at 1,200' AGL
  • Broken at 2,000' AGL
  • Few at 2,500' AGL
Temporary  (Probability 30%) Jan-22 @ 00:00 to Jan-22 @ 06:00
PROB30 TEMPO 2200/2206 5000 -TSRA SCT010 BKN017
Visibility Clouds Conditions
5,005 meters
  • Scattered at 1,000' AGL
  • Broken at 1,700' AGL
  • Light Thunderstorm
  • Light Rain
Becoming Jan-22 @ 06:00 to Jan-22 @ 12:00
BECMG 2206/2208 31010G20KT
Wind Visibility Clouds
310° at 10 knots
 Gusting to 20 knots
10,000+ meters
  • Scattered at 1,200' AGL
  • Broken at 2,000' AGL
  • Few at 2,500' AGL
Temporary  (Probability 30%) Jan-22 @ 12:00 to Jan-22 @ 18:00
PROB30 TEMPO 2212/2218 4000 TSRA SCT010 BKN017
Visibility Clouds Conditions
4,007 meters
  • Scattered at 1,000' AGL
  • Broken at 1,700' AGL
  • Thunderstorm
  • Rain
Becoming Jan-22 @ 12:00 to Jan-22 @ 18:00
BECMG 2212/2214 03010G20KT
Wind Visibility Clouds
30° at 10 knots
 Gusting to 20 knots
10,000+ meters
  • Scattered at 1,200' AGL
  • Broken at 2,000' AGL
  • Few at 2,500' AGL
Becoming Jan-22 @ 18:00 to Jan-23 @ 00:00
BECMG 2218/2220 33010G20KT TX28/2213Z TN23/2203Z
Wind Visibility Clouds
330° at 10 knots
 Gusting to 20 knots
10,000+ meters
  • Scattered at 1,200' AGL
  • Broken at 2,000' AGL
  • Few at 2,500' AGL
TAF FQNC 212200Z 2200/2300 31008KT 9999 SCT012 BKN020 FEW025CB PROB30 TEMPO 2200/2206 5000 -TSRA SCT010 BKN017 BECMG 2206/2208 31010G20KT PROB30 TEMPO 2212/2218 4000 TSRA SCT010 BKN017 BECMG 2212/2214 03010G20KT BECMG 2218/2220 33010G20KT TX28/2213Z TN23/2203Z
Issued Jan-21 @ 22:00 UTC
(2 hours ago)
Valid From Jan-22 @ 00:00 UTC
(23 minutes ago)
Valid To Jan-23 @ 00:00 UTC
(in 24 hours)
Jan-22 @ 00:00 - Jan-22 @ 06:00
Wind Visibility
310° at 8 knots 10,000+ meters
Clouds
  • Scattered at 1,200' AGL
  • Broken at 2,000' AGL
  • Few at 2,500' AGL
Probability 30% Temporary Jan-22 @ 00:00 - Jan-22 @ 06:00
Clouds
  • Scattered at 1,000' AGL
  • Broken at 1,700' AGL
Conditions
  • Light Thunderstorm
  • Light Rain
Becoming Jan-22 @ 06:00 - Jan-22 @ 12:00
Wind Visibility
310° at 10 knots
 Gusting to 20 knots
10,000+ meters
Clouds
  • Scattered at 1,200' AGL
  • Broken at 2,000' AGL
  • Few at 2,500' AGL
Probability 30% Temporary Jan-22 @ 12:00 - Jan-22 @ 18:00
Clouds
  • Scattered at 1,000' AGL
  • Broken at 1,700' AGL
Conditions
  • Thunderstorm
  • Rain
Becoming Jan-22 @ 12:00 - Jan-22 @ 18:00
Wind Visibility
30° at 10 knots
 Gusting to 20 knots
10,000+ meters
Clouds
  • Scattered at 1,200' AGL
  • Broken at 2,000' AGL
  • Few at 2,500' AGL
Becoming Jan-22 @ 18:00 - Jan-23 @ 00:00
Wind Visibility
330° at 10 knots
 Gusting to 20 knots
10,000+ meters
Clouds
  • Scattered at 1,200' AGL
  • Broken at 2,000' AGL
  • Few at 2,500' AGL